createdAt,value
2018-04-13T00:00:01.149Z,9.76
2018-04-13T00:02:28.649Z,9.71
2018-04-13T00:04:56.146Z,9.48
2018-04-13T00:07:23.641Z,9.66
2018-04-13T00:09:51.324Z,9.74
2018-04-13T00:12:18.819Z,9.62
2018-04-13T00:14:46.321Z,9.42
2018-04-13T00:17:13.816Z,9.36
2018-04-13T00:19:41.309Z,9.44
2018-04-13T00:22:09.005Z,9.21
2018-04-13T00:24:36.487Z,9.27
2018-04-13T00:27:03.964Z,9.24
2018-04-13T00:29:31.466Z,9.39
2018-04-13T00:31:58.949Z,9.44
2018-04-13T00:34:26.465Z,9.36
2018-04-13T00:36:53.961Z,9.20
2018-04-13T00:39:21.448Z,9.12
2018-04-13T00:41:48.967Z,9.01
2018-04-13T00:44:16.473Z,9.00
2018-04-13T00:46:44.195Z,9.06
2018-04-13T00:49:11.689Z,9.28
2018-04-13T00:51:39.165Z,9.03
2018-04-13T00:54:06.729Z,9.11
2018-04-13T00:56:34.208Z,9.00
2018-04-13T00:59:01.962Z,8.92
2018-04-13T01:01:29.473Z,8.76
2018-04-13T01:03:56.949Z,8.94
2018-04-13T01:06:24.453Z,9.02
2018-04-13T01:08:51.931Z,8.94
2018-04-13T01:11:19.619Z,9.09
2018-04-13T01:13:47.109Z,8.74
2018-04-13T01:16:14.585Z,8.80
2018-04-13T01:18:42.189Z,8.68
2018-04-13T01:21:09.673Z,8.66
2018-04-13T01:23:37.185Z,8.58
2018-04-13T01:26:04.663Z,8.78
2018-04-13T01:28:32.149Z,8.90
2018-04-13T01:30:59.653Z,9.02
2018-04-13T01:33:27.125Z,9.08
2018-04-13T01:35:54.821Z,8.85
2018-04-13T01:38:22.297Z,8.59
2018-04-13T01:40:49.769Z,8.51
2018-04-13T01:43:17.293Z,8.38
2018-04-13T01:45:44.780Z,8.52
2018-04-13T01:48:12.305Z,8.35
2018-04-13T01:50:39.801Z,8.34
2018-04-13T01:53:07.325Z,8.42
2018-04-13T01:55:34.844Z,8.26
2018-04-13T01:58:02.360Z,8.44
2018-04-13T02:00:29.869Z,8.42
2018-04-13T02:02:57.360Z,8.50
2018-04-13T02:05:25.065Z,8.28
2018-04-13T02:07:52.544Z,8.41
2018-04-13T02:10:20.022Z,8.38
2018-04-13T02:12:47.541Z,8.20
2018-04-13T02:15:15.018Z,8.22
2018-04-13T02:17:42.525Z,8.17
2018-04-13T02:20:10.012Z,8.09
2018-04-13T02:22:37.879Z,8.31
2018-04-13T02:25:05.357Z,8.41
2018-04-13T02:27:32.831Z,8.40
2018-04-13T02:30:00.356Z,8.28
2018-04-13T02:32:27.833Z,8.45
2018-04-13T02:34:55.625Z,8.29
2018-04-13T02:37:23.109Z,8.10
2018-04-13T02:39:50.580Z,8.24
2018-04-13T02:42:18.125Z,8.32
2018-04-13T02:44:45.606Z,8.32
2018-04-13T02:47:13.278Z,8.12
2018-04-13T02:49:40.749Z,7.94
2018-04-13T02:52:08.225Z,8.04
2018-04-13T02:54:35.738Z,7.94
2018-04-13T02:57:03.214Z,7.95
2018-04-13T02:59:30.731Z,8.07
2018-04-13T03:01:58.212Z,8.28
2018-04-13T03:04:25.689Z,8.20
2018-04-13T03:06:53.184Z,8.24
2018-04-13T03:09:20.656Z,8.06
2018-04-13T03:11:48.386Z,8.27
2018-04-13T03:14:15.864Z,8.35
2018-04-13T03:16:43.364Z,8.17
2018-04-13T03:19:10.893Z,7.85
2018-04-13T03:21:38.391Z,8.03
2018-04-13T03:24:05.908Z,7.81
2018-04-13T03:26:33.417Z,7.80
2018-04-13T03:29:00.902Z,7.69
2018-04-13T03:31:28.406Z,7.88
2018-04-13T03:33:55.889Z,7.73
2018-04-13T03:36:23.396Z,7.81
2018-04-13T03:38:50.872Z,7.98
2018-04-13T03:41:18.346Z,7.70
2018-04-13T03:43:45.847Z,7.84
2018-04-13T03:46:13.372Z,7.76
2018-04-13T03:48:40.965Z,7.80
2018-04-13T03:51:08.444Z,7.73
2018-04-13T03:53:35.916Z,8.02
2018-04-13T03:56:03.417Z,8.24
2018-04-13T03:58:30.945Z,8.16
2018-04-13T04:00:58.640Z,7.95
2018-04-13T04:03:26.138Z,8.15
2018-04-13T04:05:53.972Z,7.88
2018-04-13T04:08:21.490Z,8.14
2018-04-13T04:10:48.998Z,8.26
2018-04-13T04:13:16.891Z,8.28
2018-04-13T04:15:44.366Z,8.13
2018-04-13T04:18:12.815Z,8.05
2018-04-13T04:20:52.241Z,8.12
2018-04-13T04:23:31.362Z,7.87
2018-04-13T04:26:10.596Z,7.92
2018-04-13T04:28:38.092Z,7.87
2018-04-13T04:31:05.845Z,7.70
2018-04-13T04:33:33.324Z,7.88
2018-04-13T04:36:00.810Z,7.98
2018-04-13T04:38:28.321Z,8.07
2018-04-13T04:40:55.808Z,8.50
2018-04-13T04:43:23.340Z,8.42
2018-04-13T04:45:50.813Z,8.39
2018-04-13T04:48:18.289Z,8.49
2018-04-13T04:50:45.800Z,8.07
2018-04-13T04:53:13.275Z,8.48
2018-04-13T04:55:40.809Z,8.26
2018-04-13T04:58:08.322Z,8.31
2018-04-13T05:00:35.830Z,8.37
2018-04-13T05:03:03.332Z,8.20
2018-04-13T05:05:30.809Z,8.35
2018-04-13T05:07:58.397Z,8.16
2018-04-13T05:10:25.894Z,8.27
2018-04-13T05:12:53.369Z,8.42
2018-04-13T05:15:20.939Z,8.59
2018-04-13T05:17:48.429Z,8.66
2018-04-13T05:20:15.973Z,8.74
2018-04-13T05:22:43.467Z,8.89
2018-04-13T05:25:10.949Z,9.00
2018-04-13T05:27:38.452Z,9.03
2018-04-13T05:30:05.929Z,9.14
2018-04-13T05:32:33.590Z,9.21
2018-04-13T05:35:01.075Z,9.18
2018-04-13T05:37:28.556Z,9.47
2018-04-13T05:39:56.056Z,9.54
2018-04-13T05:42:23.536Z,9.65
2018-04-13T05:44:51.252Z,9.66
2018-04-13T05:47:18.729Z,9.82
2018-04-13T05:49:46.249Z,9.92
2018-04-13T05:52:13.753Z,9.99
2018-04-13T05:54:41.244Z,10.13
2018-04-13T05:57:08.790Z,10.24
2018-04-13T05:59:36.291Z,10.29
2018-04-13T06:02:03.797Z,10.42
2018-04-13T06:04:31.313Z,10.46
2018-04-13T06:06:58.805Z,10.65
2018-04-13T06:09:26.499Z,10.73
2018-04-13T06:11:53.982Z,10.91
2018-04-13T06:14:21.476Z,10.94
2018-04-13T06:16:48.993Z,11.13
2018-04-13T06:19:16.482Z,11.23
2018-04-13T06:21:44.212Z,11.20
2018-04-13T06:24:11.710Z,11.21
2018-04-13T06:26:39.270Z,11.19
2018-04-13T06:29:06.785Z,11.35
2018-04-13T06:31:34.365Z,11.33
2018-04-13T06:34:01.896Z,11.38
2018-04-13T06:36:29.405Z,11.47
2018-04-13T06:38:56.910Z,11.68
2018-04-13T06:41:24.440Z,11.77
2018-04-13T06:43:51.941Z,12.12
2018-04-13T06:46:19.476Z,12.01
2018-04-13T06:48:47.020Z,12.09
2018-04-13T06:51:14.478Z,12.27
2018-04-13T06:53:41.989Z,12.35
2018-04-13T06:56:09.474Z,12.45
2018-04-13T06:58:37.166Z,12.59
2018-04-13T07:01:04.665Z,12.80
2018-04-13T07:03:32.158Z,12.90
2018-04-13T07:05:59.685Z,13.06
2018-04-13T07:08:27.173Z,13.08
2018-04-13T07:10:54.941Z,13.22
2018-04-13T07:13:22.440Z,13.23
2018-04-13T07:15:49.948Z,13.28
2018-04-13T07:18:17.461Z,13.30
2018-04-13T07:20:44.953Z,13.37
2018-04-13T07:23:12.521Z,13.52
2018-04-13T07:25:40.020Z,13.63
2018-04-13T07:28:07.510Z,13.69
2018-04-13T07:30:35.022Z,13.60
2018-04-13T07:33:02.517Z,13.76
2018-04-13T07:35:30.257Z,13.93
2018-04-13T07:37:57.751Z,14.24
2018-04-13T07:40:25.265Z,14.27
2018-04-13T07:42:52.779Z,14.24
2018-04-13T07:45:20.271Z,14.19
2018-04-13T07:47:48.181Z,13.99
2018-04-13T07:50:15.429Z,13.81
2018-04-13T07:52:42.946Z,13.94
2018-04-13T07:55:10.456Z,13.97
2018-04-13T07:57:38.007Z,14.13
2018-04-13T08:00:05.661Z,14.16
2018-04-13T08:02:33.153Z,13.82
2018-04-13T08:05:00.835Z,13.68
2018-04-13T08:07:28.345Z,13.71
2018-04-13T08:09:55.868Z,13.44
2018-04-13T08:12:23.695Z,13.45
2018-04-13T08:14:51.159Z,13.38
2018-04-13T08:17:18.678Z,13.01
2018-04-13T08:19:46.199Z,13.11
2018-04-13T08:22:13.705Z,13.14
2018-04-13T08:24:41.580Z,13.34
2018-04-13T08:27:09.075Z,13.07
2018-04-13T08:29:36.594Z,13.19
2018-04-13T08:32:04.118Z,13.07
2018-04-13T08:34:31.605Z,12.73
2018-04-13T08:36:59.241Z,12.73
2018-04-13T08:39:26.735Z,12.66
2018-04-13T08:41:54.236Z,12.69
2018-04-13T08:44:21.785Z,12.67
2018-04-13T08:46:49.308Z,12.54
2018-04-13T08:49:16.968Z,12.53
2018-04-13T08:51:44.410Z,12.35
2018-04-13T08:54:11.927Z,12.49
2018-04-13T08:56:39.530Z,12.48
2018-04-13T08:59:07.022Z,12.44
2018-04-13T09:01:34.879Z,12.36
2018-04-13T09:04:02.364Z,12.44
2018-04-13T09:06:29.922Z,12.41
2018-04-13T09:08:57.444Z,12.46
2018-04-13T09:11:24.940Z,12.32
2018-04-13T09:13:52.462Z,12.11
2018-04-13T09:16:19.981Z,12.25
2018-04-13T09:18:47.541Z,12.10
2018-04-13T09:21:15.053Z,11.99
2018-04-13T09:23:42.541Z,12.04
2018-04-13T09:26:10.269Z,12.02
2018-04-13T09:28:37.765Z,11.92
2018-04-13T09:31:05.273Z,12.03
2018-04-13T09:33:32.788Z,12.03
2018-04-13T09:36:00.277Z,12.08
2018-04-13T09:38:27.897Z,12.04
2018-04-13T09:40:55.385Z,11.94
2018-04-13T09:43:22.928Z,11.82
2018-04-13T09:45:50.437Z,12.03
2018-04-13T09:48:17.925Z,12.07
2018-04-13T09:50:45.577Z,12.19
2018-04-13T09:53:13.085Z,11.92
2018-04-13T09:55:40.641Z,12.10
2018-04-13T09:58:08.141Z,12.11
2018-04-13T10:00:35.626Z,12.13
2018-04-13T10:06:03.308Z,12.02
2018-04-13T10:08:30.845Z,11.99
2018-04-13T10:10:58.331Z,12.19
2018-04-13T10:13:25.821Z,11.92
2018-04-13T10:15:53.329Z,12.04
2018-04-13T10:18:20.817Z,11.89
2018-04-13T10:20:48.348Z,12.05
2018-04-13T10:23:15.840Z,11.74
2018-04-13T10:25:43.329Z,12.30
2018-04-13T10:28:10.876Z,12.23
2018-04-13T10:30:38.354Z,12.18
2018-04-13T10:33:06.148Z,12.25
2018-04-13T10:35:33.629Z,12.59
2018-04-13T10:38:01.113Z,12.81
2018-04-13T10:40:28.649Z,12.84
2018-04-13T10:42:56.181Z,12.94
2018-04-13T10:45:23.848Z,12.91
2018-04-13T10:47:51.333Z,13.02
2018-04-13T10:50:18.817Z,12.92
2018-04-13T10:52:46.329Z,12.99
2018-04-13T10:55:13.814Z,12.54
2018-04-13T10:57:41.322Z,12.82
2018-04-13T11:00:08.824Z,13.02
2018-04-13T11:02:36.300Z,12.78
2018-04-13T11:05:03.825Z,13.23
2018-04-13T11:07:31.298Z,12.95
2018-04-13T11:09:58.954Z,13.13
2018-04-13T11:12:26.445Z,12.81
2018-04-13T11:14:53.931Z,12.91
2018-04-13T11:17:21.434Z,12.76
2018-04-13T11:19:48.913Z,12.78
2018-04-13T11:22:16.569Z,12.99
2018-04-13T11:24:44.052Z,12.92
2018-04-13T11:27:11.528Z,13.07
2018-04-13T11:29:39.040Z,13.38
2018-04-13T11:32:06.519Z,13.23
2018-04-13T11:34:34.050Z,13.08
2018-04-13T11:37:01.541Z,13.39
2018-04-13T11:39:29.057Z,13.24
2018-04-13T11:41:56.565Z,13.43
2018-04-13T11:44:25.320Z,13.32
2018-04-13T11:46:53.972Z,12.93
2018-04-13T11:49:21.478Z,13.03
2018-04-13T11:51:48.990Z,12.93
2018-04-13T11:54:16.493Z,13.05
2018-04-13T11:56:43.983Z,12.95
2018-04-13T11:59:11.593Z,13.02
2018-04-13T12:01:39.097Z,12.90
2018-04-13T12:04:06.574Z,12.94
2018-04-13T12:06:34.097Z,13.04
2018-04-13T12:09:01.597Z,13.07
2018-04-13T12:11:29.240Z,13.04
2018-04-13T12:13:56.725Z,13.01
2018-04-13T12:16:24.202Z,12.92
2018-04-13T12:18:51.730Z,13.01
2018-04-13T12:21:19.216Z,12.88
2018-04-13T12:23:46.908Z,12.97
2018-04-13T12:26:14.402Z,12.89
2018-04-13T12:28:41.897Z,12.80
2018-04-13T12:31:09.441Z,12.89
2018-04-13T12:33:36.973Z,12.78
2018-04-13T12:36:04.497Z,12.91
2018-04-13T12:38:31.985Z,12.87
2018-04-13T12:40:59.461Z,12.83
2018-04-13T12:43:26.961Z,12.79
2018-04-13T12:45:54.437Z,12.99
2018-04-13T12:48:21.969Z,13.11
2018-04-13T12:50:49.477Z,12.94
2018-04-13T12:53:16.962Z,13.12
2018-04-13T12:55:44.544Z,13.25
2018-04-13T12:58:11.964Z,13.36
2018-04-13T13:00:39.491Z,13.44
2018-04-13T13:03:06.971Z,13.41
2018-04-13T13:05:34.627Z,13.45
2018-04-13T13:08:02.146Z,13.47
2018-04-13T13:10:29.641Z,13.57
2018-04-13T13:12:57.342Z,13.56
2018-04-13T13:15:24.830Z,13.58
2018-04-13T13:17:52.349Z,13.75
2018-04-13T13:20:19.851Z,13.63
2018-04-13T13:22:47.333Z,13.55
2018-04-13T13:25:14.849Z,13.50
2018-04-13T13:27:42.347Z,13.50
2018-04-13T13:30:09.838Z,13.68
2018-04-13T13:32:38.844Z,13.79
2018-04-13T13:35:06.425Z,13.64
2018-04-13T13:37:33.913Z,13.82
2018-04-13T13:40:01.413Z,14.00
2018-04-13T13:42:28.890Z,13.82
2018-04-13T13:44:56.482Z,13.72
2018-04-13T13:47:23.969Z,13.66
2018-04-13T13:49:53.206Z,13.97
2018-04-13T13:52:20.793Z,14.02
2018-04-13T13:54:48.283Z,14.20
2018-04-13T13:57:15.815Z,14.04
2018-04-13T13:59:43.301Z,14.03
2018-04-13T14:02:10.783Z,14.17
2018-04-13T14:04:39.186Z,14.16
2018-04-13T14:07:06.725Z,14.39
2018-04-13T14:09:34.359Z,14.23
2018-04-13T14:12:01.886Z,14.31
2018-04-13T14:14:29.412Z,14.21
2018-04-13T14:16:56.949Z,14.32
2018-04-13T14:19:24.426Z,14.19
2018-04-13T14:21:52.096Z,14.29
2018-04-13T14:24:19.596Z,14.35
2018-04-13T14:26:47.094Z,14.38
2018-04-13T14:29:14.603Z,14.32
2018-04-13T14:31:42.077Z,14.56
2018-04-13T14:34:09.778Z,14.33
2018-04-13T14:36:37.258Z,14.60
2018-04-13T14:39:04.733Z,14.44
2018-04-13T14:41:32.261Z,14.54
2018-04-13T14:43:59.775Z,14.37
2018-04-13T14:49:01.080Z,14.67
2018-04-13T14:51:28.598Z,14.54
2018-04-13T14:53:56.089Z,14.42
2018-04-13T14:56:23.563Z,14.52
2018-04-13T14:58:51.061Z,14.33
2018-04-13T15:01:18.545Z,14.30
2018-04-13T15:03:46.453Z,14.20
2018-04-13T15:06:13.953Z,14.15
2018-04-13T15:08:41.437Z,14.21
2018-04-13T15:11:08.949Z,14.25
2018-04-13T15:13:36.454Z,14.28
2018-04-13T15:16:03.981Z,14.23
2018-04-13T15:18:31.562Z,14.21
2018-04-13T15:20:59.037Z,14.19
2018-04-13T15:23:26.541Z,14.24
2018-04-13T15:25:54.045Z,14.46
2018-04-13T15:28:21.564Z,14.52
2018-04-13T15:30:49.053Z,14.61
2018-04-13T15:33:16.537Z,14.63
2018-04-13T15:35:44.068Z,14.58
2018-04-13T15:38:11.553Z,14.67
2018-04-13T15:40:39.409Z,14.68
2018-04-13T15:43:06.886Z,14.89
2018-04-13T15:45:34.362Z,14.61
2018-04-13T15:48:01.885Z,14.69
2018-04-13T15:50:29.421Z,14.66
2018-04-13T15:52:57.273Z,14.71
2018-04-13T15:55:24.873Z,14.65
2018-04-13T15:57:52.349Z,14.58
2018-04-13T16:00:19.854Z,14.56
2018-04-13T16:02:47.368Z,14.57
2018-04-13T16:05:14.908Z,14.63
2018-04-13T16:07:42.388Z,14.74
2018-04-13T16:10:09.889Z,14.55
2018-04-13T16:12:37.430Z,14.56
2018-04-13T16:15:04.933Z,14.55
2018-04-13T16:17:33.018Z,14.53
2018-04-13T16:20:00.501Z,14.72
2018-04-13T16:22:27.985Z,14.58
2018-04-13T16:24:55.494Z,14.58
2018-04-13T16:27:22.968Z,14.15
2018-04-13T16:29:50.484Z,14.41
2018-04-13T16:32:17.969Z,14.32
2018-04-13T16:34:45.446Z,14.11
2018-04-13T16:37:12.981Z,13.97
2018-04-13T16:39:40.465Z,14.04
2018-04-13T16:42:07.992Z,13.94
2018-04-13T16:44:35.543Z,13.94
2018-04-13T16:47:03.052Z,13.95
2018-04-13T16:49:30.580Z,13.88
2018-04-13T16:51:58.073Z,13.88
2018-04-13T16:54:25.761Z,13.77
2018-04-13T16:56:53.242Z,13.82
2018-04-13T16:59:20.734Z,13.63
2018-04-13T17:01:48.254Z,13.65
2018-04-13T17:04:15.738Z,13.84
2018-04-13T17:06:43.413Z,13.58
2018-04-13T17:09:10.895Z,13.65
2018-04-13T17:11:38.393Z,13.56
2018-04-13T17:14:05.931Z,13.81
2018-04-13T17:16:33.425Z,13.76
2018-04-13T17:19:00.934Z,13.92
2018-04-13T17:21:28.411Z,13.70
2018-04-13T17:23:56.109Z,13.55
2018-04-13T17:26:25.501Z,13.73
2018-04-13T17:28:53.038Z,13.82
2018-04-13T17:31:20.592Z,13.74
2018-04-13T17:33:48.138Z,13.82
2018-04-13T17:36:15.922Z,13.76
2018-04-13T17:38:43.418Z,13.78
2018-04-13T17:41:10.913Z,13.53
2018-04-13T17:43:38.430Z,13.75
2018-04-13T17:46:05.925Z,13.78
2018-04-13T17:48:33.581Z,13.67
2018-04-13T17:51:01.076Z,13.46
2018-04-13T17:53:28.594Z,13.41
2018-04-13T17:55:56.129Z,13.25
2018-04-13T17:58:23.625Z,13.18
2018-04-13T18:00:51.329Z,13.32
2018-04-13T18:03:18.822Z,13.47
2018-04-13T18:05:46.313Z,13.59
2018-04-13T18:08:14.272Z,13.60
2018-04-13T18:10:41.773Z,13.70
2018-04-13T18:13:09.710Z,13.59
2018-04-13T18:15:38.010Z,13.55
2018-04-13T18:18:05.740Z,13.39
2018-04-13T18:20:33.973Z,13.16
2018-04-13T18:23:01.474Z,13.16
2018-04-13T18:25:29.014Z,13.05
2018-04-13T18:27:56.509Z,13.17
2018-04-13T18:30:24.050Z,13.23
2018-04-13T18:32:51.588Z,13.39
2018-04-13T18:35:19.086Z,13.35
2018-04-13T18:37:47.582Z,13.39
2018-04-13T18:40:15.086Z,13.43
2018-04-13T18:42:43.000Z,13.41
2018-04-13T18:45:10.534Z,13.31
2018-04-13T18:47:38.037Z,13.16
2018-04-13T18:50:05.727Z,12.96
2018-04-13T18:52:33.245Z,12.97
2018-04-13T18:55:00.751Z,12.74
2018-04-13T18:57:28.298Z,12.81
2018-04-13T18:59:55.812Z,12.63
2018-04-13T19:02:24.042Z,12.72
2018-04-13T19:04:51.922Z,12.77
2018-04-13T19:07:19.626Z,12.63
2018-04-13T19:09:47.479Z,12.62
2018-04-13T19:12:15.025Z,12.57
2018-04-13T19:14:42.848Z,12.54
2018-04-13T19:17:11.269Z,12.51
2018-04-13T19:19:39.909Z,12.41
2018-04-13T19:22:07.799Z,12.36
2018-04-13T19:24:37.016Z,12.46
2018-04-13T19:27:05.415Z,12.41
2018-04-13T19:29:34.207Z,12.24
2018-04-13T19:32:02.769Z,12.37
2018-04-13T19:34:31.274Z,12.25
2018-04-13T19:36:59.483Z,12.14
2018-04-13T19:39:27.353Z,12.13
2018-04-13T19:41:55.754Z,12.17
2018-04-13T19:44:23.428Z,12.34
2018-04-13T19:46:51.212Z,12.41
2018-04-13T19:49:19.436Z,12.39
2018-04-13T19:51:47.421Z,12.33
2018-04-13T19:54:15.460Z,12.37
2018-04-13T19:56:43.342Z,12.42
2018-04-13T19:59:12.961Z,12.43
2018-04-13T20:01:41.594Z,12.28
2018-04-13T20:04:10.528Z,12.33
2018-04-13T20:06:38.753Z,12.30
2018-04-13T20:09:06.827Z,12.00
2018-04-13T20:11:35.833Z,12.06
2018-04-13T20:14:03.820Z,12.13
2018-04-13T20:16:31.977Z,12.18
2018-04-13T20:18:59.883Z,12.03
2018-04-13T20:21:27.766Z,12.03
2018-04-13T20:23:56.559Z,11.84
2018-04-13T20:26:24.080Z,11.82
2018-04-13T20:28:51.842Z,12.01
2018-04-13T20:31:19.436Z,12.11
2018-04-13T20:33:46.977Z,12.26
2018-04-13T20:36:14.602Z,12.34
2018-04-13T20:38:43.003Z,12.27
2018-04-13T20:41:10.694Z,12.30
2018-04-13T20:43:38.853Z,12.14
2018-04-13T20:46:06.587Z,12.08
2018-04-13T20:48:34.698Z,11.96
2018-04-13T20:51:03.089Z,11.89
2018-04-13T20:53:31.315Z,11.74
2018-04-13T20:55:58.953Z,11.70
2018-04-13T20:58:26.477Z,11.65
2018-04-13T21:00:54.064Z,11.61
2018-04-13T21:03:21.616Z,11.24
2018-04-13T21:05:49.282Z,11.17
2018-04-13T21:08:16.809Z,11.26
2018-04-13T21:10:44.374Z,11.07
2018-04-13T21:13:12.052Z,11.04
2018-04-13T21:15:39.593Z,11.14
2018-04-13T21:18:07.673Z,11.07
2018-04-13T21:20:35.747Z,11.23
2018-04-13T21:23:03.245Z,11.18
2018-04-13T21:25:30.808Z,11.00
2018-04-13T21:27:59.372Z,10.86
2018-04-13T21:30:27.184Z,10.81
2018-04-13T21:32:54.684Z,10.82
2018-04-13T21:35:22.193Z,10.47
2018-04-13T21:37:49.785Z,10.35
2018-04-13T21:40:17.952Z,10.28
2018-04-13T21:42:45.792Z,10.17
2018-04-13T21:45:13.298Z,10.12
2018-04-13T21:47:40.801Z,9.99
2018-04-13T21:50:08.348Z,9.98
2018-04-13T21:52:36.470Z,10.10
2018-04-13T21:55:04.180Z,9.90
2018-04-13T21:57:31.773Z,9.80
2018-04-13T21:59:59.261Z,9.84
2018-04-13T22:02:26.802Z,9.80
2018-04-13T22:04:54.315Z,9.79
2018-04-13T22:07:22.039Z,9.76
2018-04-13T22:09:49.545Z,9.69
2018-04-13T22:12:28.922Z,9.59
2018-04-13T22:14:56.409Z,9.48
2018-04-13T22:17:23.889Z,9.37
2018-04-13T22:19:51.438Z,9.22
2018-04-13T22:22:18.913Z,9.04
2018-04-13T22:24:46.399Z,9.02
2018-04-13T22:27:13.901Z,9.07
2018-04-13T22:29:41.385Z,9.23
2018-04-13T22:32:08.865Z,9.33
2018-04-13T22:34:36.440Z,9.19
2018-04-13T22:37:03.919Z,9.28
2018-04-13T22:39:31.404Z,8.99
2018-04-13T22:41:58.944Z,8.80
2018-04-13T22:44:26.431Z,8.69
2018-04-13T22:46:53.925Z,8.56
2018-04-13T22:49:21.422Z,8.58
2018-04-13T22:51:48.920Z,8.39
2018-04-13T22:54:16.556Z,8.27
2018-04-13T22:56:44.033Z,8.22
2018-04-13T22:59:11.527Z,8.25
2018-04-13T23:01:39.037Z,8.21
2018-04-13T23:04:06.568Z,8.09
2018-04-13T23:06:34.218Z,8.13
2018-04-13T23:09:01.701Z,8.33
2018-04-13T23:11:29.176Z,8.38
2018-04-13T23:13:56.693Z,8.54
2018-04-13T23:16:24.181Z,8.46
2018-04-13T23:18:51.696Z,8.35
2018-04-13T23:21:19.173Z,8.22
2018-04-13T23:23:46.652Z,8.07
2018-04-13T23:26:14.149Z,8.11
2018-04-13T23:28:41.622Z,7.89
2018-04-13T23:31:09.321Z,7.94
2018-04-13T23:33:36.797Z,7.92
2018-04-13T23:36:04.269Z,7.80
2018-04-13T23:38:31.791Z,7.76
2018-04-13T23:40:59.265Z,7.76
2018-04-13T23:43:26.789Z,7.77
2018-04-13T23:45:54.270Z,7.76
2018-04-13T23:48:22.073Z,7.69
2018-04-13T23:50:49.564Z,7.53
2018-04-13T23:53:17.059Z,7.52
2018-04-13T23:55:44.597Z,7.66
2018-04-13T23:58:12.114Z,7.58
